Time;durP1;ratioP1;P1;durP2;ratioP2;P2;SDS_P1;SDS_P2;PMS_P1;PMS_P2;Temp;Humidity;BMP_temperature;BMP_pressure;BME280_temperature;BME280_humidity;BME280_pressure;Samples;Min_cycle;Max_cycle;Signal;HPM_P1;HPM_P2
2022/06/04 00:01:00;;;;;;;;;;;18.20;99.90;;;;;;5026770;28;19934;-65
2022/06/04 00:03:27;;;;;;;;;;;18.10;99.90;;;;;;5050574;28;19925;-65
2022/06/04 00:05:55;;;;;;;;;;;18.10;99.90;;;;;;5027633;28;19929;-64
2022/06/04 00:08:22;;;;;;;;;;;18.10;99.90;;;;;;5052051;28;19925;-64
2022/06/04 00:16:22;;;;;;;;;;;18.10;99.90;;;;;;5019679;28;19925;-64
2022/06/04 00:18:49;;;;;;;;;;;18.00;99.90;;;;;;5054543;28;19929;-64
2022/06/04 00:21:16;;;;;;;;;;;18.00;99.90;;;;;;5053434;28;19925;-65
2022/06/04 00:23:42;;;;;;;;;;;18.00;99.90;;;;;;5058416;28;19925;-64
2022/06/04 00:26:10;;;;;;;;;;;18.00;99.90;;;;;;5023348;28;19934;-64
2022/06/04 00:28:39;;;;;;;;;;;18.00;99.90;;;;;;5052239;28;19925;-64
2022/06/04 00:31:06;;;;;;;;;;;18.00;99.90;;;;;;5023264;28;19932;-63
2022/06/04 00:33:32;;;;;;;;;;;18.00;99.90;;;;;;5054727;28;19933;-65
2022/06/04 00:36:00;;;;;;;;;;;18.00;99.90;;;;;;5018299;28;19937;-64
2022/06/04 00:38:28;;;;;;;;;;;18.00;99.90;;;;;;5052918;28;19972;-65
2022/06/04 00:40:58;;;;;;;;;;;18.00;99.90;;;;;;5018838;28;19929;-64
2022/06/04 00:43:25;;;;;;;;;;;17.90;99.90;;;;;;5051140;28;19937;-64
2022/06/04 00:46:07;;;;;;;;;;;18.00;99.90;;;;;;5016721;28;19926;-64
2022/06/04 00:48:35;;;;;;;;;;;17.90;99.90;;;;;;5022499;28;20466;-64
2022/06/04 00:51:03;;;;;;;;;;;17.90;99.90;;;;;;5051121;28;19933;-64
2022/06/04 00:53:30;;;;;;;;;;;17.90;99.90;;;;;;5043610;28;19925;-65
2022/06/04 00:56:03;;;;;;;;;;;17.80;99.90;;;;;;5015902;28;20401;-65
2022/06/04 00:58:48;;;;;;;;;;;17.80;99.90;;;;;;5013607;28;19957;-64
2022/06/04 01:01:19;;;;;;;;;;;17.80;99.90;;;;;;5015500;28;19979;-64
2022/06/04 01:03:52;;;;;;;;;;;17.80;99.90;;;;;;5015915;28;19975;-64
2022/06/04 01:06:24;;;;;;;;;;;17.70;99.90;;;;;;5023949;28;20416;-64
2022/06/04 01:08:59;;;;;;;;;;;17.70;99.90;;;;;;5052336;28;19972;-63
2022/06/04 01:11:33;;;;;;;;;;;17.60;99.90;;;;;;5057568;28;19933;-64
2022/06/04 01:14:05;;;;;;;;;;;17.60;99.90;;;;;;5022129;28;19929;-64
2022/06/04 01:16:34;;;;;;;;;;;17.50;99.90;;;;;;5010618;28;20371;-65
2022/06/04 01:19:07;;;;;;;;;;;17.50;99.90;;;;;;5017771;28;19925;-64
2022/06/04 01:21:39;;;;;;;;;;;17.50;99.90;;;;;;5015424;28;19929;-64
2022/06/04 01:24:25;;;;;;;;;;;17.50;99.90;;;;;;5057326;28;20359;-64
2022/06/04 01:27:02;;;;;;;;;;;17.50;99.90;;;;;;5015517;28;20392;-64
2022/06/04 01:29:33;;;;;;;;;;;17.40;99.90;;;;;;5042706;28;19925;-65
2022/06/04 01:32:03;;;;;;;;;;;17.40;99.90;;;;;;5017349;28;19926;-64
2022/06/04 01:34:33;;;;;;;;;;;17.40;99.90;;;;;;5049280;28;19925;-64
2022/06/04 01:37:02;;;;;;;;;;;17.40;99.90;;;;;;5017714;28;19933;-64
2022/06/04 01:41:03;;;;;;;;;;;17.30;99.90;;;;;;5016729;28;19929;-64
2022/06/04 01:42:18;;;;;;;;;;;17.20;99.90;;;;;;5020933;28;20020;-64
2022/06/04 01:44:46;;;;;;;;;;;17.20;99.90;;;;;;5013880;28;19933;-64
2022/06/04 01:47:13;;;;;;;;;;;17.10;99.90;;;;;;5016677;28;19925;-65
2022/06/04 01:49:43;;;;;;;;;;;17.10;99.90;;;;;;5015119;28;19969;-64
2022/06/04 01:52:12;;;;;;;;;;;17.00;99.90;;;;;;5023179;28;19929;-64
2022/06/04 01:54:40;;;;;;;;;;;16.90;99.90;;;;;;5053397;28;19925;-64
2022/06/04 01:57:11;;;;;;;;;;;16.80;99.90;;;;;;5054762;28;19979;-64
2022/06/04 01:59:40;;;;;;;;;;;16.70;99.90;;;;;;5013702;28;19984;-64
2022/06/04 02:02:09;;;;;;;;;;;16.60;99.90;;;;;;5015531;28;20455;-64
2022/06/04 02:04:37;;;;;;;;;;;16.60;99.90;;;;;;5055182;28;19953;-64
2022/06/04 02:09:54;;;;;;;;;;;16.50;99.90;;;;;;5021073;28;19925;-64
2022/06/04 02:12:21;;;;;;;;;;;16.50;99.90;;;;;;5052266;28;20397;-64
2022/06/04 02:14:49;;;;;;;;;;;16.40;99.90;;;;;;5021084;28;19979;-64
2022/06/04 02:17:20;;;;;;;;;;;16.40;99.90;;;;;;5017051;28;19984;-64
2022/06/04 02:19:47;;;;;;;;;;;16.40;99.90;;;;;;5018421;28;19983;-64
2022/06/04 02:22:14;;;;;;;;;;;16.40;99.90;;;;;;5048017;28;20043;-63
2022/06/04 02:24:41;;;;;;;;;;;16.30;99.90;;;;;;5015735;28;20253;-63
2022/06/04 02:27:09;;;;;;;;;;;16.30;99.90;;;;;;5020727;28;20347;-64
2022/06/04 02:29:36;;;;;;;;;;;16.20;99.90;;;;;;5017685;28;19934;-64
2022/06/04 02:32:06;;;;;;;;;;;16.20;99.90;;;;;;5016775;28;19929;-63
2022/06/04 02:34:35;;;;;;;;;;;16.10;99.90;;;;;;5014867;28;19926;-64
2022/06/04 02:37:06;;;;;;;;;;;16.00;99.90;;;;;;5020085;28;20389;-64
2022/06/04 02:39:35;;;;;;;;;;;15.90;99.90;;;;;;5011050;28;20459;-64
2022/06/04 02:42:06;;;;;;;;;;;15.90;99.90;;;;;;5021044;28;19925;-64
2022/06/04 02:44:34;;;;;;;;;;;15.80;99.90;;;;;;5009962;28;19948;-64
2022/06/04 02:47:05;;;;;;;;;;;15.70;99.90;;;;;;5016316;28;20294;-63
2022/06/04 02:49:38;;;;;;;;;;;15.70;99.90;;;;;;5047712;28;19925;-63
2022/06/04 02:52:07;;;;;;;;;;;15.70;99.90;;;;;;5016367;28;19926;-64
2022/06/04 02:54:35;;;;;;;;;;;15.60;99.90;;;;;;5021766;28;19932;-63
2022/06/04 02:57:03;;;;;;;;;;;15.50;99.90;;;;;;5046213;28;20289;-63
2022/06/04 02:59:31;;;;;;;;;;;15.50;99.90;;;;;;5011422;28;19945;-63
2022/06/04 03:02:00;;;;;;;;;;;15.40;99.90;;;;;;5015493;28;19925;-63
2022/06/04 03:04:27;;;;;;;;;;;15.40;99.90;;;;;;5047284;28;19929;-64
2022/06/04 03:07:04;;;;;;;;;;;15.30;99.90;;;;;;5018604;28;19933;-63
2022/06/04 03:09:31;;;;;;;;;;;15.30;99.90;;;;;;5010083;28;19975;-63
2022/06/04 03:11:57;;;;;;;;;;;15.30;99.90;;;;;;5052083;28;19999;-64
2022/06/04 03:14:24;;;;;;;;;;;15.20;99.90;;;;;;5051473;28;20000;-63
2022/06/04 03:16:51;;;;;;;;;;;15.20;99.90;;;;;;5018358;28;19925;-64
2022/06/04 03:19:18;;;;;;;;;;;15.10;99.90;;;;;;5018936;28;19929;-63
2022/06/04 03:21:45;;;;;;;;;;;15.10;99.90;;;;;;5053375;28;19929;-64
2022/06/04 03:24:14;;;;;;;;;;;15.20;99.90;;;;;;5021997;28;19925;-63
2022/06/04 03:26:41;;;;;;;;;;;15.20;99.90;;;;;;5014053;28;20345;-64
2022/06/04 03:29:09;;;;;;;;;;;15.20;99.90;;;;;;5017653;28;19925;-63
2022/06/04 03:31:35;;;;;;;;;;;15.20;99.90;;;;;;5008751;28;19926;-62
2022/06/04 03:34:03;;;;;;;;;;;15.20;99.90;;;;;;5016965;28;19926;-64
2022/06/04 03:36:30;;;;;;;;;;;15.20;99.90;;;;;;5010997;28;20381;-63
2022/06/04 03:38:58;;;;;;;;;;;15.10;99.90;;;;;;5020330;28;19929;-63
2022/06/04 03:41:26;;;;;;;;;;;15.10;99.90;;;;;;5018725;28;19979;-64
2022/06/04 03:43:53;;;;;;;;;;;15.10;99.90;;;;;;5053285;28;19979;-63
2022/06/04 03:46:20;;;;;;;;;;;15.00;99.90;;;;;;5015891;28;20378;-64
2022/06/04 03:48:47;;;;;;;;;;;15.10;99.90;;;;;;5051221;28;20460;-64
2022/06/04 03:51:13;;;;;;;;;;;15.10;99.90;;;;;;5022693;28;19925;-64
2022/06/04 03:53:40;;;;;;;;;;;15.10;99.90;;;;;;5054186;28;20293;-64
2022/06/04 03:56:07;;;;;;;;;;;15.10;99.90;;;;;;5052453;28;19952;-64
2022/06/04 03:58:35;;;;;;;;;;;15.10;99.90;;;;;;5017257;28;20388;-64
2022/06/04 04:01:12;;;;;;;;;;;15.20;99.90;;;;;;5053491;28;19926;-64
2022/06/04 04:03:38;;;;;;;;;;;15.10;99.90;;;;;;5045135;28;19956;-64
2022/06/04 04:06:05;;;;;;;;;;;15.10;99.90;;;;;;5015639;28;19979;-63
2022/06/04 04:08:32;;;;;;;;;;;15.10;99.90;;;;;;5013043;28;20361;-63
2022/06/04 04:10:58;;;;;;;;;;;15.10;99.90;;;;;;5017217;28;20408;-64
2022/06/04 04:13:25;;;;;;;;;;;15.10;99.90;;;;;;5047680;28;19991;-64
2022/06/04 04:15:53;;;;;;;;;;;15.10;99.90;;;;;;5053928;28;19926;-64
2022/06/04 04:18:20;;;;;;;;;;;15.10;99.90;;;;;;5054432;28;19929;-64
2022/06/04 04:20:48;;;;;;;;;;;15.10;99.90;;;;;;5048042;28;19933;-65
2022/06/04 04:23:15;;;;;;;;;;;15.10;99.90;;;;;;5018197;28;19926;-64
2022/06/04 04:25:42;;;;;;;;;;;15.00;99.90;;;;;;5022186;28;19925;-65
2022/06/04 04:28:09;;;;;;;;;;;15.00;99.90;;;;;;5047840;28;19930;-64
2022/06/04 04:30:36;;;;;;;;;;;15.00;99.90;;;;;;5015560;28;19932;-65
2022/06/04 04:33:05;;;;;;;;;;;15.00;99.90;;;;;;5047903;28;20465;-65
2022/06/04 04:35:33;;;;;;;;;;;15.00;99.90;;;;;;5046156;28;19976;-64
2022/06/04 04:37:59;;;;;;;;;;;15.10;99.90;;;;;;5024344;28;19965;-65
2022/06/04 04:40:27;;;;;;;;;;;15.10;99.90;;;;;;5019119;28;19972;-65
2022/06/04 04:42:54;;;;;;;;;;;15.20;99.90;;;;;;5023122;28;19926;-65
2022/06/04 04:45:22;;;;;;;;;;;15.30;99.90;;;;;;5050617;28;19929;-64
2022/06/04 04:47:48;;;;;;;;;;;15.40;99.90;;;;;;5049832;28;19979;-64
2022/06/04 04:50:19;;;;;;;;;;;15.50;99.90;;;;;;5025176;28;19925;-65
2022/06/04 04:52:46;;;;;;;;;;;15.60;99.90;;;;;;5016095;28;19991;-65
2022/06/04 04:55:12;;;;;;;;;;;15.70;99.90;;;;;;5017111;28;19983;-65
2022/06/04 04:57:39;;;;;;;;;;;15.70;99.90;;;;;;5016638;28;19930;-65
2022/06/04 05:00:09;;;;;;;;;;;15.80;99.90;;;;;;5025837;28;19925;-64
2022/06/04 05:02:36;;;;;;;;;;;15.90;99.90;;;;;;5012904;28;20400;-66
2022/06/04 05:05:03;;;;;;;;;;;16.00;99.90;;;;;;5017960;28;19976;-65
2022/06/04 05:07:31;;;;;;;;;;;16.00;99.90;;;;;;5058262;28;19969;-65
2022/06/04 05:09:57;;;;;;;;;;;16.10;99.90;;;;;;5055972;28;19925;-64
2022/06/04 05:12:24;;;;;;;;;;;16.20;99.90;;;;;;5045451;28;20440;-65
2022/06/04 05:14:52;;;;;;;;;;;16.20;99.90;;;;;;5020437;28;19924;-64
2022/06/04 05:17:19;;;;;;;;;;;16.20;99.90;;;;;;5019647;28;19926;-65
2022/06/04 05:19:45;;;;;;;;;;;16.30;99.90;;;;;;5020021;28;19968;-64
2022/06/04 05:22:12;;;;;;;;;;;16.30;99.90;;;;;;5053947;28;20355;-65
2022/06/04 05:24:40;;;;;;;;;;;16.40;99.90;;;;;;5015561;28;19929;-64
2022/06/04 05:27:07;;;;;;;;;;;16.40;99.90;;;;;;5021132;28;19925;-65
2022/06/04 05:29:36;;;;;;;;;;;16.40;99.90;;;;;;5049392;28;20347;-64
2022/06/04 05:32:03;;;;;;;;;;;16.40;99.90;;;;;;5020122;28;19926;-65
2022/06/04 05:34:31;;;;;;;;;;;16.50;99.90;;;;;;5048643;28;19957;-65
2022/06/04 05:36:58;;;;;;;;;;;16.50;99.90;;;;;;5015805;28;19926;-65
2022/06/04 05:39:25;;;;;;;;;;;16.60;99.90;;;;;;5049216;28;19999;-65
2022/06/04 05:41:54;;;;;;;;;;;16.60;99.90;;;;;;5024066;28;19964;-65
2022/06/04 05:44:20;;;;;;;;;;;16.70;99.90;;;;;;5025647;28;19971;-65
2022/06/04 05:46:47;;;;;;;;;;;16.70;99.90;;;;;;5052004;28;19972;-65
2022/06/04 05:49:14;;;;;;;;;;;16.70;99.90;;;;;;5025083;28;20385;-64
2022/06/04 05:51:43;;;;;;;;;;;16.80;99.90;;;;;;5048053;28;19929;-65
2022/06/04 05:54:10;;;;;;;;;;;16.90;99.90;;;;;;5021358;28;19937;-65
2022/06/04 05:56:38;;;;;;;;;;;16.90;99.90;;;;;;5056510;28;19972;-65
2022/06/04 05:59:07;;;;;;;;;;;17.00;99.90;;;;;;5021229;28;19925;-66
2022/06/04 06:01:35;;;;;;;;;;;17.10;99.90;;;;;;5053055;28;19972;-65
2022/06/04 06:04:02;;;;;;;;;;;17.20;99.90;;;;;;5017264;28;19925;-65
2022/06/04 06:06:31;;;;;;;;;;;17.30;99.90;;;;;;5044021;28;19948;-65
2022/06/04 06:08:59;;;;;;;;;;;17.40;99.90;;;;;;5022670;28;20405;-66
2022/06/04 06:11:25;;;;;;;;;;;17.50;99.90;;;;;;5049897;28;20336;-65
2022/06/04 06:13:53;;;;;;;;;;;17.70;99.90;;;;;;5049709;28;20362;-66
2022/06/04 06:16:22;;;;;;;;;;;17.60;99.90;;;;;;5049584;28;20336;-65
2022/06/04 06:18:49;;;;;;;;;;;17.50;99.90;;;;;;5054951;28;19975;-65
2022/06/04 06:21:21;;;;;;;;;;;17.60;99.90;;;;;;5023450;28;19960;-65
2022/06/04 06:23:48;;;;;;;;;;;17.70;99.90;;;;;;5014905;28;20385;-66
2022/06/04 06:26:16;;;;;;;;;;;17.70;99.90;;;;;;5013505;28;19925;-65
2022/06/04 06:28:43;;;;;;;;;;;17.70;99.90;;;;;;5014688;28;20381;-65
2022/06/04 06:31:11;;;;;;;;;;;17.70;99.90;;;;;;5020802;28;20289;-65
2022/06/04 06:33:39;;;;;;;;;;;17.80;99.90;;;;;;5014717;28;20449;-65
2022/06/04 06:36:07;;;;;;;;;;;17.80;99.90;;;;;;5010623;28;20421;-66
2022/06/04 06:38:34;;;;;;;;;;;17.90;99.90;;;;;;5014821;28;19925;-66
2022/06/04 06:41:02;;;;;;;;;;;18.00;99.90;;;;;;5015788;28;19976;-66
2022/06/04 06:43:33;;;;;;;;;;;18.10;99.90;;;;;;5018005;28;20064;-66
2022/06/04 06:46:03;;;;;;;;;;;18.10;99.90;;;;;;5019020;28;19925;-65
2022/06/04 06:48:30;;;;;;;;;;;18.30;99.90;;;;;;5015825;28;19929;-66
2022/06/04 06:50:58;;;;;;;;;;;18.30;99.90;;;;;;5019664;28;19953;-66
2022/06/04 06:53:25;;;;;;;;;;;18.30;99.90;;;;;;5049855;28;20461;-66
2022/06/04 06:55:52;;;;;;;;;;;18.20;99.90;;;;;;5024055;28;19925;-65
2022/06/04 06:58:18;;;;;;;;;;;18.20;99.90;;;;;;5014815;28;19933;-66
2022/06/04 07:00:45;;;;;;;;;;;18.40;99.90;;;;;;5058837;28;19925;-66
2022/06/04 07:03:12;;;;;;;;;;;18.50;99.90;;;;;;5049012;28;20012;-66
2022/06/04 07:05:39;;;;;;;;;;;18.60;99.90;;;;;;5054252;28;19926;-63
2022/06/04 07:08:07;;;;;;;;;;;18.60;99.90;;;;;;5016339;28;19929;-64
2022/06/04 07:10:34;;;;;;;;;;;18.70;99.90;;;;;;5015415;28;19925;-64
2022/06/04 07:13:01;;;;;;;;;;;18.70;99.90;;;;;;5015783;28;20389;-66
2022/06/04 07:15:28;;;;;;;;;;;18.70;99.90;;;;;;5053679;28;19956;-66
2022/06/04 07:17:54;;;;;;;;;;;18.80;99.90;;;;;;5049529;28;19933;-66
2022/06/04 07:20:21;;;;;;;;;;;18.70;99.90;;;;;;5048290;28;19979;-64
2022/06/04 07:22:49;;;;;;;;;;;18.80;99.90;;;;;;5014697;28;19933;-64
2022/06/04 07:25:17;;;;;;;;;;;18.90;99.90;;;;;;5020321;28;19925;-64
2022/06/04 07:27:44;;;;;;;;;;;19.00;99.90;;;;;;5021170;28;19925;-64
2022/06/04 07:30:11;;;;;;;;;;;19.20;99.90;;;;;;5015564;28;19925;-63
2022/06/04 07:32:38;;;;;;;;;;;19.20;99.90;;;;;;5022004;28;19929;-63
2022/06/04 07:35:05;;;;;;;;;;;19.20;99.90;;;;;;5049049;28;19961;-64
2022/06/04 07:37:32;;;;;;;;;;;19.30;99.90;;;;;;5013949;28;19925;-66
2022/06/04 07:39:58;;;;;;;;;;;19.40;99.90;;;;;;5019238;28;20314;-63
2022/06/04 07:42:28;;;;;;;;;;;19.40;99.90;;;;;;5047391;28;19972;-63
2022/06/04 07:44:56;;;;;;;;;;;19.40;99.90;;;;;;5022284;28;19931;-64
2022/06/04 07:47:22;;;;;;;;;;;19.40;99.90;;;;;;5047662;28;19932;-63
2022/06/04 07:49:49;;;;;;;;;;;19.30;99.90;;;;;;5023144;28;19968;-63
2022/06/04 07:52:19;;;;;;;;;;;19.40;99.90;;;;;;5055698;28;20397;-64
2022/06/04 07:54:46;;;;;;;;;;;19.30;99.90;;;;;;5017308;28;19925;-64
2022/06/04 07:57:13;;;;;;;;;;;19.50;99.90;;;;;;5055588;28;20164;-65
2022/06/04 07:59:41;;;;;;;;;;;19.80;99.90;;;;;;5013616;28;19926;-65
2022/06/04 08:02:10;;;;;;;;;;;19.90;99.90;;;;;;5023923;28;20447;-64
2022/06/04 08:04:36;;;;;;;;;;;20.00;99.90;;;;;;5014077;28;19973;-65
2022/06/04 08:07:04;;;;;;;;;;;20.30;99.90;;;;;;5014668;28;19925;-65
2022/06/04 08:09:31;;;;;;;;;;;20.60;99.90;;;;;;5054544;28;20008;-65
2022/06/04 08:11:58;;;;;;;;;;;20.70;99.90;;;;;;5016090;28;20377;-65
2022/06/04 08:14:25;;;;;;;;;;;20.80;99.90;;;;;;5022332;28;19965;-65
2022/06/04 08:16:54;;;;;;;;;;;20.70;99.90;;;;;;5022381;28;19929;-65
2022/06/04 08:19:22;;;;;;;;;;;20.70;99.90;;;;;;5013226;28;20450;-65
2022/06/04 08:21:49;;;;;;;;;;;20.80;99.90;;;;;;5022994;28;20304;-65
2022/06/04 08:24:16;;;;;;;;;;;20.80;99.90;;;;;;5016255;28;20036;-65
2022/06/04 08:26:45;;;;;;;;;;;20.70;99.90;;;;;;5017264;28;19980;-65
2022/06/04 08:29:12;;;;;;;;;;;21.00;99.90;;;;;;5019414;28;19925;-65
2022/06/04 08:31:39;;;;;;;;;;;20.90;99.90;;;;;;5058372;28;19979;-64
2022/06/04 08:34:07;;;;;;;;;;;21.00;99.90;;;;;;5018620;28;20346;-65
2022/06/04 08:36:34;;;;;;;;;;;21.00;99.90;;;;;;5017171;28;20389;-65
2022/06/04 08:39:01;;;;;;;;;;;20.80;99.90;;;;;;5018303;28;19972;-65
2022/06/04 08:41:36;;;;;;;;;;;20.70;99.90;;;;;;5050586;28;19925;-65
2022/06/04 08:44:06;;;;;;;;;;;20.80;99.90;;;;;;5055812;28;19926;-64
2022/06/04 08:46:35;;;;;;;;;;;21.00;99.90;;;;;;5018918;28;19925;-65
2022/06/04 08:49:05;;;;;;;;;;;20.90;99.90;;;;;;5056489;28;20009;-65
2022/06/04 08:51:33;;;;;;;;;;;20.90;99.90;;;;;;5014176;28;19925;-65
2022/06/04 08:57:32;;;;;;;;;;;21.00;99.90;;;;;;5017992;28;20451;-64
2022/06/04 08:59:36;;;;;;;;;;;21.00;99.90;;;;;;5034116;28;20400;-65
2022/06/04 09:02:04;;;;;;;;;;;21.00;99.90;;;;;;5016821;28;19925;-65
2022/06/04 09:04:37;;;;;;;;;;;20.80;99.90;;;;;;5051034;28;20363;-66
2022/06/04 09:07:09;;;;;;;;;;;20.80;99.90;;;;;;5050467;28;20344;-66
2022/06/04 09:09:38;;;;;;;;;;;20.80;99.90;;;;;;5023697;28;20348;-65
2022/06/04 09:12:09;;;;;;;;;;;21.00;99.90;;;;;;5019231;28;19926;-65
2022/06/04 09:14:39;;;;;;;;;;;21.00;99.90;;;;;;5057508;28;19973;-65
2022/06/04 09:17:07;;;;;;;;;;;21.00;99.90;;;;;;5027057;28;19929;-66
2022/06/04 09:19:35;;;;;;;;;;;21.10;99.90;;;;;;5016032;28;19929;-65
2022/06/04 09:22:04;;;;;;;;;;;21.20;99.90;;;;;;5022121;28;19925;-65
2022/06/04 09:24:32;;;;;;;;;;;21.00;99.90;;;;;;5046778;28;19965;-65
2022/06/04 09:27:05;;;;;;;;;;;21.10;99.90;;;;;;5028003;28;19930;-65
2022/06/04 09:29:45;;;;;;;;;;;21.20;99.90;;;;;;5047128;28;19925;-65
2022/06/04 09:32:15;;;;;;;;;;;21.20;99.90;;;;;;5017111;28;19995;-65
2022/06/04 09:34:46;;;;;;;;;;;21.50;99.90;;;;;;5015707;28;20020;-65
2022/06/04 09:37:13;;;;;;;;;;;21.80;99.90;;;;;;5023323;28;19925;-66
2022/06/04 09:39:42;;;;;;;;;;;21.90;99.90;;;;;;5050577;28;20305;-65
2022/06/04 09:42:20;;;;;;;;;;;22.00;99.90;;;;;;5021576;28;20367;-65
2022/06/04 09:44:51;;;;;;;;;;;22.10;99.90;;;;;;5050609;28;20023;-65
2022/06/04 09:47:21;;;;;;;;;;;22.30;99.90;;;;;;5025075;28;20191;-65
2022/06/04 09:49:53;;;;;;;;;;;22.40;99.90;;;;;;5050907;28;19930;-65
2022/06/04 09:52:22;;;;;;;;;;;22.40;99.90;;;;;;5035410;28;20504;-66
2022/06/04 09:54:54;;;;;;;;;;;22.40;99.90;;;;;;5015434;28;19961;-65
2022/06/04 09:57:26;;;;;;;;;;;22.50;99.90;;;;;;5049939;28;19925;-65
2022/06/04 09:59:54;;;;;;;;;;;22.90;99.90;;;;;;5020055;28;19925;-66
2022/06/04 10:02:20;;;;;;;;;;;23.10;99.90;;;;;;5021423;28;20384;-66
2022/06/04 10:04:48;;;;;;;;;;;23.30;99.90;;;;;;5023692;28;19929;-65
2022/06/04 10:07:16;;;;;;;;;;;23.20;99.90;;;;;;5014912;28;19947;-65
2022/06/04 10:09:56;;;;;;;;;;;23.00;99.90;;;;;;5055123;28;19926;-66
2022/06/04 10:13:42;;;;;;;;;;;22.80;99.90;;;;;;5019447;28;20477;-65
2022/06/04 10:15:17;;;;;;;;;;;23.10;99.90;;;;;;5018553;28;20008;-66
2022/06/04 10:17:44;;;;;;;;;;;23.40;99.90;;;;;;5015411;28;20483;-65
2022/06/04 10:23:13;;;;;;;;;;;23.60;99.90;;;;;;5007071;28;19980;-66
2022/06/04 10:25:44;;;;;;;;;;;24.00;99.90;;;;;;5003633;28;20020;-65
2022/06/04 10:28:20;;;;;;;;;;;24.40;99.90;;;;;;5025484;28;19954;-65
2022/06/04 10:30:50;;;;;;;;;;;24.50;99.90;;;;;;5008527;28;19980;-66
2022/06/04 10:33:22;;;;;;;;;;;24.50;99.90;;;;;;5003598;28;19925;-65
2022/06/04 10:35:54;;;;;;;;;;;24.90;99.90;;;;;;5021028;28;19969;-65
2022/06/04 10:38:26;;;;;;;;;;;25.40;99.90;;;;;;4996886;28;19926;-65
2022/06/04 10:41:03;;;;;;;;;;;25.40;99.90;;;;;;5021038;28;19929;-65
2022/06/04 10:43:39;;;;;;;;;;;25.60;99.90;;;;;;4997779;28;20385;-65
2022/06/04 10:46:09;;;;;;;;;;;25.50;99.90;;;;;;5025574;28;19984;-65
2022/06/04 10:48:46;;;;;;;;;;;25.70;99.90;;;;;;5020195;28;19925;-65
2022/06/04 10:54:02;;;;;;;;;;;26.10;99.90;;;;;;5006248;28;20020;-65
2022/06/04 10:56:31;;;;;;;;;;;26.40;99.90;;;;;;5003881;28;20489;-66
2022/06/04 10:59:03;;;;;;;;;;;26.80;99.90;;;;;;5002460;28;20405;-65
2022/06/04 11:01:32;;;;;;;;;;;27.10;99.90;;;;;;5003358;28;19930;-65
2022/06/04 11:04:07;;;;;;;;;;;26.90;99.90;;;;;;5000506;28;20370;-65
2022/06/04 11:06:36;;;;;;;;;;;26.70;99.90;;;;;;5021415;28;19926;-65
2022/06/04 11:09:05;;;;;;;;;;;27.30;99.90;;;;;;4995940;28;19948;-66
2022/06/04 11:11:33;;;;;;;;;;;27.80;99.90;;;;;;5020952;28;20393;-65
2022/06/04 11:14:04;;;;;;;;;;;28.00;99.90;;;;;;5022346;28;20425;-66
2022/06/04 11:16:34;;;;;;;;;;;28.10;99.90;;;;;;5003961;28;19926;-65
2022/06/04 11:19:04;;;;;;;;;;;28.00;99.90;;;;;;5021328;28;20007;-66
2022/06/04 11:21:34;;;;;;;;;;;28.00;99.90;;;;;;5015508;28;20398;-66
2022/06/04 11:24:03;;;;;;;;;;;28.10;99.90;;;;;;5019974;28;19925;-65
2022/06/04 11:26:32;;;;;;;;;;;27.90;99.90;;;;;;5022226;28;19968;-65
2022/06/04 11:29:00;;;;;;;;;;;27.90;99.90;;;;;;5024233;28;19961;-66
2022/06/04 11:31:34;;;;;;;;;;;27.80;99.90;;;;;;4996708;28;20391;-66
2022/06/04 11:34:14;;;;;;;;;;;28.10;99.90;;;;;;5023898;28;19926;-65
2022/06/04 11:36:46;;;;;;;;;;;28.40;99.90;;;;;;4997405;28;19983;-65
2022/06/04 11:39:23;;;;;;;;;;;28.10;99.90;;;;;;5005999;28;19980;-65
2022/06/04 11:41:55;;;;;;;;;;;27.70;99.90;;;;;;5000958;28;19930;-65
2022/06/04 11:44:33;;;;;;;;;;;27.50;99.90;;;;;;5018702;28;19997;-65
2022/06/04 11:47:07;;;;;;;;;;;27.80;99.90;;;;;;5005269;28;20447;-66
2022/06/04 11:49:36;;;;;;;;;;;28.40;99.90;;;;;;5021459;28;19930;-66
2022/06/04 11:52:09;;;;;;;;;;;29.60;99.90;;;;;;5003557;28;19976;-66
2022/06/04 11:54:42;;;;;;;;;;;30.70;99.90;;;;;;5022243;28;20028;-65
2022/06/04 11:57:13;;;;;;;;;;;31.50;99.90;;;;;;5015051;28;19925;-66
2022/06/04 11:59:50;;;;;;;;;;;30.80;99.90;;;;;;5029257;28;19926;-65
2022/06/04 12:02:20;;;;;;;;;;;29.90;99.90;;;;;;5017162;28;19930;-65
2022/06/04 12:04:52;;;;;;;;;;;29.60;99.90;;;;;;5028778;28;19929;-66
2022/06/04 12:07:21;;;;;;;;;;;29.80;99.90;;;;;;5027103;28;19929;-65
2022/06/04 12:09:50;;;;;;;;;;;30.00;99.90;;;;;;5025072;28;20448;-66
2022/06/04 12:12:19;;;;;;;;;;;31.20;99.90;;;;;;5031882;28;19957;-66
2022/06/04 12:14:51;;;;;;;;;;;32.00;99.90;;;;;;5010593;28;19925;-66
2022/06/04 12:17:22;;;;;;;;;;;32.70;99.90;;;;;;5023130;28;20164;-66
2022/06/04 12:25:34;;;;;;;;;;;35.30;99.90;;;;;;5016438;28;19921;-63
2022/06/04 12:28:02;;;;;;;;;;;35.50;99.90;;;;;;5006220;28;19956;-63
2022/06/04 12:30:33;;;;;;;;;;;35.10;99.90;;;;;;5030529;28;20369;-64
2022/06/04 12:33:04;;;;;;;;;;;35.10;99.90;;;;;;5032574;28;20389;-64
2022/06/04 12:35:31;;;;;;;;;;;34.40;99.90;;;;;;5015994;28;19987;-64
2022/06/04 12:37:59;;;;;;;;;;;34.00;99.90;;;;;;5032626;28;19930;-64
2022/06/04 12:40:34;;;;;;;;;;;34.20;99.90;;;;;;5022793;28;19972;-64
2022/06/04 12:43:06;;;;;;;;;;;35.10;99.90;;;;;;5020960;28;20412;-64
2022/06/04 12:45:40;;;;;;;;;;;35.50;99.90;;;;;;5032354;28;19931;-64
2022/06/04 12:48:31;;;;;;;;;;;36.10;99.90;;;;;;5030198;28;20455;-65
2022/06/04 12:51:00;;;;;;;;;;;36.40;99.90;;;;;;5028559;28;19964;-64
2022/06/04 12:53:28;;;;;;;;;;;36.20;99.90;;;;;;5028839;28;19933;-64
2022/06/04 12:55:57;;;;;;;;;;;37.10;99.90;;;;;;5027200;28;20397;-64
2022/06/04 12:58:30;;;;;;;;;;;37.10;99.90;;;;;;5015916;28;19929;-64
2022/06/04 13:00:58;;;;;;;;;;;37.30;99.90;;;;;;5030209;28;20359;-64
2022/06/04 13:03:32;;;;;;;;;;;37.70;99.90;;;;;;5004379;28;19957;-64
2022/06/04 13:06:16;;;;;;;;;;;38.10;99.90;;;;;;5028069;28;19992;-64
2022/06/04 13:08:46;;;;;;;;;;;37.60;99.90;;;;;;5006309;28;19973;-64
2022/06/04 13:11:29;;;;;;;;;;;37.30;99.90;;;;;;5008558;28;20396;-65
2022/06/04 13:14:01;;;;;;;;;;;37.00;99.90;;;;;;5024803;28;20332;-64
2022/06/04 13:16:30;;;;;;;;;;;37.10;99.90;;;;;;5000675;28;20305;-64
2022/06/04 13:19:04;;;;;;;;;;;37.50;99.90;;;;;;5024835;28;19975;-65
2022/06/04 13:21:32;;;;;;;;;;;38.40;99.90;;;;;;5028757;28;19979;-65
2022/06/04 13:24:00;;;;;;;;;;;38.90;99.90;;;;;;5019303;28;20049;-65
2022/06/04 13:26:31;;;;;;;;;;;38.70;99.90;;;;;;5028628;28;19980;-64
2022/06/04 13:28:58;;;;;;;;;;;38.30;99.90;;;;;;5026496;28;19925;-65
2022/06/04 13:31:26;;;;;;;;;;;38.10;99.90;;;;;;5024481;28;19977;-65
2022/06/04 13:33:54;;;;;;;;;;;38.30;99.90;;;;;;5024810;28;19951;-65
2022/06/04 13:36:23;;;;;;;;;;;37.60;99.90;;;;;;5024969;28;19930;-64
2022/06/04 13:38:51;;;;;;;;;;;37.10;99.90;;;;;;5016614;28;19980;-63
2022/06/04 13:42:00;;;;;;;;;;;37.60;99.90;;;;;;5007111;28;19926;-65
2022/06/04 13:44:06;;;;;;;;;;;37.40;99.90;;;;;;5015084;28;19926;-65
2022/06/04 13:46:33;;;;;;;;;;;37.70;99.90;;;;;;5004627;28;19925;-65
2022/06/04 13:49:04;;;;;;;;;;;38.50;99.90;;;;;;5003744;28;19929;-65
2022/06/04 13:51:39;;;;;;;;;;;38.50;99.90;;;;;;5024137;28;20342;-65
2022/06/04 13:54:06;;;;;;;;;;;38.30;99.90;;;;;;5004673;28;19925;-64
2022/06/04 13:56:38;;;;;;;;;;;37.90;99.90;;;;;;5026013;28;19983;-64
2022/06/04 13:59:05;;;;;;;;;;;37.60;99.90;;;;;;5009921;28;19933;-65
2022/06/04 14:01:33;;;;;;;;;;;37.70;99.90;;;;;;5018045;28;19926;-65
2022/06/04 14:06:43;;;;;;;;;;;37.60;99.90;;;;;;5025901;28;19955;-64
2022/06/04 14:09:19;;;;;;;;;;;37.30;99.90;;;;;;5001891;28;19926;-65
2022/06/04 14:11:50;;;;;;;;;;;36.50;99.90;;;;;;5025996;28;19926;-64
2022/06/04 14:14:22;;;;;;;;;;;36.20;99.90;;;;;;5005734;28;19926;-65
2022/06/04 14:16:54;;;;;;;;;;;36.40;99.90;;;;;;5025690;28;19973;-65
2022/06/04 14:19:34;;;;;;;;;;;36.10;99.90;;;;;;5024105;28;19972;-65
2022/06/04 14:22:04;;;;;;;;;;;36.40;99.90;;;;;;5024153;28;20455;-65
2022/06/04 14:24:38;;;;;;;;;;;36.20;99.90;;;;;;5021817;28;19925;-64
2022/06/04 14:27:08;;;;;;;;;;;36.10;99.90;;;;;;5001462;28;19969;-65
2022/06/04 14:29:40;;;;;;;;;;;36.90;99.90;;;;;;5018772;28;19961;-65
2022/06/04 14:32:12;;;;;;;;;;;37.70;99.90;;;;;;5018777;28;19926;-65
2022/06/04 14:34:42;;;;;;;;;;;38.40;99.90;;;;;;5023636;28;20405;-65
2022/06/04 14:37:10;;;;;;;;;;;38.70;99.90;;;;;;5025236;28;19934;-65
2022/06/04 14:39:38;;;;;;;;;;;38.40;99.90;;;;;;5005311;28;19995;-65
2022/06/04 14:42:19;;;;;;;;;;;38.70;99.90;;;;;;5004828;28;19933;-64
2022/06/04 14:44:54;;;;;;;;;;;38.40;99.90;;;;;;5009393;28;19929;-64
2022/06/04 14:47:35;;;;;;;;;;;38.70;99.90;;;;;;5018016;28;20352;-64
2022/06/04 14:50:12;;;;;;;;;;;38.50;99.90;;;;;;5022861;28;19977;-65
2022/06/04 14:52:41;;;;;;;;;;;38.10;99.90;;;;;;5011336;28;19930;-65
2022/06/04 14:55:11;;;;;;;;;;;37.90;99.90;;;;;;5025181;28;19949;-65